createdAt,value
2023-03-04T00:00:37.689Z,9.63
2023-03-04T00:03:07.359Z,13.13
2023-03-04T00:05:34.367Z,11.50
2023-03-04T00:08:01.367Z,7.57
2023-03-04T00:10:28.455Z,7.88
2023-03-04T00:12:55.492Z,7.68
2023-03-04T00:15:22.542Z,9.35
2023-03-04T00:17:49.707Z,6.28
2023-03-04T00:20:16.794Z,3.20
2023-03-04T00:22:43.770Z,6.75
2023-03-04T00:25:10.843Z,5.25
2023-03-04T00:27:37.823Z,5.95
2023-03-04T00:30:06.952Z,8.55
2023-03-04T00:32:34.155Z,6.22
2023-03-04T00:35:01.293Z,3.03
2023-03-04T00:37:28.298Z,3.05
2023-03-04T00:39:55.301Z,3.75
2023-03-04T00:42:22.340Z,6.05
2023-03-04T00:44:50.008Z,4.25
2023-03-04T00:47:17.014Z,5.45
2023-03-04T00:49:44.030Z,3.95
2023-03-04T00:52:11.063Z,6.05
2023-03-04T00:54:38.049Z,7.47
2023-03-04T00:57:05.102Z,3.95
2023-03-04T00:59:33.330Z,4.53
2023-03-04T01:02:00.433Z,5.22
2023-03-04T01:04:27.654Z,6.82
2023-03-04T01:06:54.647Z,6.45
2023-03-04T01:09:21.645Z,2.28
2023-03-04T01:11:48.586Z,9.82
2023-03-04T01:14:15.475Z,4.18
2023-03-04T01:16:42.472Z,3.50
2023-03-04T01:19:09.446Z,5.47
2023-03-04T01:21:36.390Z,5.65
2023-03-04T01:24:03.593Z,2.42
2023-03-04T01:26:30.569Z,3.53
2023-03-04T01:28:57.565Z,4.82
2023-03-04T01:31:24.624Z,1.67
2023-03-04T01:33:51.657Z,2.35
2023-03-04T01:36:18.724Z,2.08
2023-03-04T01:38:45.711Z,5.85
2023-03-04T01:41:14.024Z,3.05
2023-03-04T01:43:41.215Z,5.50
2023-03-04T01:46:10.169Z,3.00
2023-03-04T01:48:39.101Z,4.82
2023-03-04T01:51:10.947Z,2.90
2023-03-04T01:53:37.996Z,3.05
2023-03-04T01:56:15.913Z,1.38
2023-03-04T01:58:43.443Z,3.70
2023-03-04T02:01:14.138Z,4.10
2023-03-04T02:03:41.183Z,1.90
2023-03-04T02:06:08.308Z,3.47
2023-03-04T02:08:35.614Z,5.75
2023-03-04T02:11:02.570Z,5.45
2023-03-04T02:13:29.593Z,1.35
2023-03-04T02:15:56.544Z,2.35
2023-03-04T02:18:25.016Z,1.38
2023-03-04T02:20:58.827Z,1.63
2023-03-04T02:23:34.413Z,5.88
2023-03-04T02:26:20.672Z,2.63
2023-03-04T02:28:49.457Z,6.20
2023-03-04T02:31:28.049Z,4.38
2023-03-04T02:33:57.403Z,4.53
2023-03-04T02:36:24.611Z,0.52
2023-03-04T02:38:53.877Z,0.28
2023-03-04T02:41:25.336Z,2.40
2023-03-04T02:43:54.498Z,4.68
2023-03-04T02:46:21.617Z,3.22
2023-03-04T02:48:49.742Z,5.43
2023-03-04T02:51:17.090Z,5.03
2023-03-04T02:53:44.073Z,0.55
2023-03-04T02:56:10.982Z,4.07
2023-03-04T02:58:38.387Z,2.25
2023-03-04T03:01:08.586Z,3.85
2023-03-04T03:03:35.531Z,1.65
2023-03-04T03:06:02.572Z,3.78
2023-03-04T03:08:29.500Z,1.08
2023-03-04T03:10:56.473Z,2.58
2023-03-04T03:13:23.406Z,3.03
2023-03-04T03:15:50.532Z,0.40
2023-03-04T03:18:17.831Z,2.65
2023-03-04T03:20:44.858Z,1.73
2023-03-04T03:23:12.049Z,7.03
2023-03-04T03:25:39.050Z,1.00
2023-03-04T03:28:06.296Z,4.63
2023-03-04T03:30:33.331Z,6.68
2023-03-04T03:33:00.252Z,9.07
2023-03-04T03:35:27.707Z,2.05
2023-03-04T03:37:54.710Z,4.78
2023-03-04T03:40:21.673Z,4.10
2023-03-04T03:42:48.577Z,5.38
2023-03-04T03:45:15.618Z,5.43
2023-03-04T03:47:42.623Z,2.60
2023-03-04T03:50:10.061Z,0.45
2023-03-04T03:52:37.038Z,3.20
2023-03-04T03:55:04.475Z,5.68
2023-03-04T03:57:31.481Z,2.33
2023-03-04T03:59:58.457Z,3.25
2023-03-04T04:02:25.540Z,4.10
2023-03-04T04:04:52.610Z,0.65
2023-03-04T04:07:19.645Z,0.70
2023-03-04T04:09:46.648Z,2.28
2023-03-04T04:12:16.766Z,0.35
2023-03-04T04:14:43.913Z,1.10
2023-03-04T04:17:11.270Z,2.72
2023-03-04T04:19:38.736Z,1.52
2023-03-04T04:22:05.754Z,4.30
2023-03-04T04:24:32.724Z,1.90
2023-03-04T04:26:59.801Z,0.77
2023-03-04T04:29:26.771Z,8.18
2023-03-04T04:31:54.101Z,0.30
2023-03-04T04:34:21.226Z,0.98
2023-03-04T04:36:48.353Z,7.35
2023-03-04T04:39:15.375Z,3.10
2023-03-04T04:41:45.145Z,5.22
2023-03-04T04:44:13.079Z,0.52
2023-03-04T04:46:40.742Z,3.42
2023-03-04T04:49:08.668Z,4.57
2023-03-04T04:51:38.329Z,7.53
2023-03-04T04:54:06.067Z,4.90
2023-03-04T04:56:33.473Z,3.90
2023-03-04T04:59:03.526Z,3.13
2023-03-04T05:01:31.479Z,2.95
2023-03-04T05:03:58.519Z,4.68
2023-03-04T05:06:25.987Z,0.68
2023-03-04T05:08:53.175Z,2.90
2023-03-04T05:11:21.026Z,0.82
2023-03-04T05:13:48.805Z,0.35
2023-03-04T05:16:16.779Z,1.75
2023-03-04T05:21:16.396Z,3.42
2023-03-04T05:23:44.086Z,4.55
2023-03-04T05:26:14.795Z,1.65
2023-03-04T05:28:42.126Z,1.30
2023-03-04T05:31:09.774Z,4.95
2023-03-04T05:33:37.073Z,4.55
2023-03-04T05:36:05.383Z,11.90
2023-03-04T05:38:32.518Z,1.67
2023-03-04T05:41:01.973Z,1.55
2023-03-04T05:43:29.497Z,2.00
2023-03-04T05:45:57.002Z,2.70
2023-03-04T05:48:24.340Z,6.97
2023-03-04T05:50:58.776Z,3.00
2023-03-04T05:53:25.916Z,6.57
2023-03-04T05:55:52.944Z,4.63
2023-03-04T05:58:20.066Z,1.65
2023-03-04T06:00:47.235Z,1.45
2023-03-04T06:03:16.366Z,5.40
2023-03-04T06:05:43.353Z,3.90
2023-03-04T06:08:11.641Z,1.65
2023-03-04T06:10:40.015Z,1.45
2023-03-04T06:13:07.876Z,6.90
2023-03-04T06:15:35.273Z,0.80
2023-03-04T06:18:02.412Z,0.45
2023-03-04T06:20:29.418Z,1.92
2023-03-04T06:22:56.339Z,1.48
2023-03-04T06:25:23.831Z,2.05
2023-03-04T06:27:51.130Z,0.35
2023-03-04T06:30:21.313Z,2.30
2023-03-04T06:32:48.282Z,2.10
2023-03-04T06:35:16.738Z,4.00
2023-03-04T06:37:44.047Z,1.95
2023-03-04T06:40:13.875Z,3.92
2023-03-04T06:42:41.280Z,3.80
2023-03-04T06:45:09.743Z,2.17
2023-03-04T06:47:36.697Z,3.50
2023-03-04T06:50:04.886Z,3.65
2023-03-04T06:52:31.990Z,3.63
2023-03-04T06:54:58.996Z,3.15
2023-03-04T06:57:25.990Z,2.72
2023-03-04T06:59:53.488Z,5.03
2023-03-04T07:02:20.576Z,3.20
2023-03-04T07:04:47.630Z,5.13
2023-03-04T07:07:14.782Z,0.40
2023-03-04T07:09:42.024Z,2.95
2023-03-04T07:12:09.114Z,3.50
2023-03-04T07:14:36.106Z,4.13
2023-03-04T07:17:03.309Z,5.05
2023-03-04T07:19:30.399Z,0.80
2023-03-04T07:21:57.370Z,1.42
2023-03-04T07:24:24.333Z,7.22
2023-03-04T07:26:51.295Z,4.30
2023-03-04T07:29:18.360Z,3.70
2023-03-04T07:31:45.452Z,2.67
2023-03-04T07:34:14.402Z,2.38
2023-03-04T07:36:45.069Z,2.38
2023-03-04T07:39:13.864Z,1.17
2023-03-04T07:41:41.510Z,2.63
2023-03-04T07:44:13.021Z,1.40
2023-03-04T07:46:40.780Z,0.60
2023-03-04T07:49:08.074Z,7.07
2023-03-04T07:51:35.814Z,3.38
2023-03-04T07:54:02.928Z,2.97
2023-03-04T07:56:32.889Z,1.00
2023-03-04T07:59:00.672Z,4.10
2023-03-04T08:01:33.971Z,12.27
2023-03-04T08:04:01.925Z,7.22
2023-03-04T08:06:29.254Z,4.35
2023-03-04T08:08:59.861Z,0.45
2023-03-04T08:11:28.768Z,1.67
2023-03-04T08:13:56.041Z,5.45
2023-03-04T08:16:23.984Z,7.72
2023-03-04T08:18:53.852Z,2.75
2023-03-04T08:21:23.139Z,2.05
2023-03-04T08:23:51.729Z,1.75
2023-03-04T08:26:22.923Z,0.65
2023-03-04T08:28:50.262Z,7.38
2023-03-04T08:31:18.508Z,5.97
2023-03-04T08:33:45.711Z,3.33
2023-03-04T08:36:13.452Z,6.82
2023-03-04T08:38:40.853Z,2.72
2023-03-04T08:41:07.892Z,1.90
2023-03-04T08:43:34.996Z,45.58
2023-03-04T08:46:02.774Z,11.23
2023-03-04T08:48:29.789Z,7.20
2023-03-04T08:50:56.841Z,22.95
2023-03-04T08:53:24.313Z,8.02
2023-03-04T08:55:52.815Z,4.97
2023-03-04T08:58:19.986Z,22.10
2023-03-04T09:00:48.655Z,55.83
2023-03-04T09:03:17.420Z,7.45
2023-03-04T09:05:46.259Z,8.27
2023-03-04T09:08:14.381Z,4.05
2023-03-04T09:10:41.614Z,10.00
2023-03-04T09:13:11.447Z,4.85
2023-03-04T09:15:44.100Z,15.10
2023-03-04T09:18:11.156Z,4.05
2023-03-04T09:20:38.183Z,22.70
2023-03-04T09:23:05.354Z,12.60
2023-03-04T09:25:32.734Z,3.22
2023-03-04T09:27:59.701Z,21.38
2023-03-04T09:30:28.076Z,11.10
2023-03-04T09:32:56.084Z,13.82
2023-03-04T09:35:23.497Z,8.68
2023-03-04T09:37:53.071Z,5.63
2023-03-04T09:40:24.191Z,8.55
2023-03-04T09:42:58.129Z,19.33
2023-03-04T09:45:32.529Z,8.80
2023-03-04T09:48:00.024Z,7.07
2023-03-04T09:50:31.949Z,2.97
2023-03-04T09:53:46.409Z,7.88
2023-03-04T09:56:14.614Z,4.78
2023-03-04T09:58:59.897Z,2.13
2023-03-04T10:01:40.121Z,1.92
2023-03-04T10:04:36.561Z,0.93
2023-03-04T10:07:06.319Z,1.58
2023-03-04T10:09:42.991Z,1.27
2023-03-04T10:12:15.487Z,1.20
2023-03-04T10:15:03.637Z,3.95
2023-03-04T10:17:38.377Z,22.88
2023-03-04T10:20:18.897Z,5.15
2023-03-04T10:22:56.890Z,4.53
2023-03-04T10:25:33.934Z,6.80
2023-03-04T10:28:03.104Z,3.42
2023-03-04T10:31:06.868Z,3.42
2023-03-04T10:33:36.337Z,5.38
2023-03-04T10:36:03.302Z,7.85
2023-03-04T10:38:36.830Z,7.00
2023-03-04T10:41:17.472Z,2.88
2023-03-04T10:43:50.597Z,2.80
2023-03-04T10:46:17.677Z,3.92
2023-03-04T10:48:45.395Z,7.95
2023-03-04T10:51:28.093Z,7.82
2023-03-04T10:54:26.133Z,2.80
2023-03-04T10:57:02.637Z,1.10
2023-03-04T11:00:10.414Z,1.42
2023-03-04T11:02:37.526Z,5.13
2023-03-04T11:05:21.651Z,6.57
2023-03-04T11:07:56.997Z,6.03
2023-03-04T11:10:39.538Z,1.20
2023-03-04T11:13:12.271Z,2.08
2023-03-04T11:16:00.019Z,2.83
2023-03-04T11:18:59.479Z,0.45
2023-03-04T11:21:30.742Z,0.82
2023-03-04T11:24:22.279Z,4.63
2023-03-04T11:27:20.566Z,3.33
2023-03-04T11:30:00.579Z,1.20
2023-03-04T11:32:40.628Z,0.90
2023-03-04T11:35:27.246Z,1.17
2023-03-04T11:38:13.529Z,3.22
2023-03-04T11:40:44.563Z,1.75
2023-03-04T11:43:26.423Z,3.05
2023-03-04T11:46:14.554Z,4.68
2023-03-04T11:49:08.102Z,4.70
2023-03-04T11:51:49.686Z,5.47
2023-03-04T11:54:22.216Z,4.00
2023-03-04T11:56:59.112Z,3.22
2023-03-04T11:59:38.066Z,5.65
2023-03-04T12:02:45.892Z,7.78
2023-03-04T12:05:44.665Z,4.93
2023-03-04T12:08:29.441Z,3.95
2023-03-04T12:11:05.060Z,4.22
2023-03-04T12:13:36.396Z,3.42
2023-03-04T12:16:41.652Z,2.20
2023-03-04T12:19:26.186Z,4.57
2023-03-04T12:22:13.772Z,0.80
2023-03-04T12:25:11.259Z,1.73
2023-03-04T12:28:16.202Z,0.52
2023-03-04T12:31:01.044Z,0.85
2023-03-04T12:33:53.621Z,1.38
2023-03-04T12:36:44.564Z,2.20
2023-03-04T12:41:52.974Z,1.63
2023-03-04T12:44:22.088Z,2.83
2023-03-04T12:47:11.695Z,0.73
2023-03-04T12:49:44.367Z,2.88
2023-03-04T13:51:51.893Z,1.15
2023-03-04T13:54:36.230Z,2.97
2023-03-04T13:57:21.396Z,0.70
2023-03-04T13:59:53.625Z,2.13
2023-03-04T14:02:26.294Z,5.20
2023-03-04T14:05:01.720Z,1.05
2023-03-04T14:07:37.533Z,3.10
2023-03-04T14:10:13.911Z,2.03
2023-03-04T14:12:59.180Z,0.35
2023-03-04T14:15:31.078Z,0.52
2023-03-04T14:18:03.536Z,0.90
2023-03-04T14:20:34.716Z,0.50
2023-03-04T14:23:21.796Z,5.20
2023-03-04T14:25:48.793Z,2.42
2023-03-04T14:28:20.370Z,0.80
2023-03-04T14:30:55.901Z,2.95
2023-03-04T14:33:26.029Z,0.90
2023-03-04T14:35:57.047Z,2.03
2023-03-04T14:38:31.801Z,1.95
2023-03-04T14:41:12.538Z,3.35
2023-03-04T14:43:50.167Z,1.45
2023-03-04T14:46:26.077Z,6.60
2023-03-04T14:48:54.462Z,1.92
2023-03-04T14:51:46.087Z,0.77
2023-03-04T14:54:36.365Z,4.40
2023-03-04T14:57:30.049Z,4.28
2023-03-04T14:59:57.075Z,0.73
2023-03-04T15:02:42.860Z,3.33
2023-03-04T15:05:26.339Z,2.47
2023-03-04T15:08:07.101Z,0.95
2023-03-04T15:10:38.575Z,2.50
2023-03-04T15:13:08.064Z,0.63
2023-03-04T15:15:42.888Z,0.82
2023-03-04T15:18:26.651Z,2.40
2023-03-04T15:20:54.596Z,1.20
2023-03-04T15:23:21.558Z,1.70
2023-03-04T15:25:53.521Z,0.98
2023-03-04T15:28:21.605Z,6.25
2023-03-04T15:30:48.830Z,5.72
2023-03-04T15:33:16.369Z,1.70
2023-03-04T15:35:51.436Z,1.88
2023-03-04T15:38:18.995Z,3.92
2023-03-04T15:40:47.344Z,4.43
2023-03-04T15:43:20.319Z,5.07
2023-03-04T15:45:51.907Z,2.60
2023-03-04T15:48:19.729Z,1.27
2023-03-04T15:50:58.216Z,3.08
2023-03-04T15:53:35.883Z,7.90
2023-03-04T15:56:04.981Z,3.25
2023-03-04T15:58:35.009Z,8.43
2023-03-04T16:01:02.572Z,8.20
2023-03-04T16:03:29.644Z,11.02
2023-03-04T16:05:57.233Z,47.30
2023-03-04T16:08:25.221Z,30.88
2023-03-04T16:10:53.792Z,52.60
2023-03-04T16:13:23.193Z,104.88
2023-03-04T16:15:50.870Z,70.38
2023-03-04T16:18:18.445Z,18.92
2023-03-04T16:20:47.851Z,10.48
2023-03-04T16:23:18.890Z,42.55
2023-03-04T16:25:48.444Z,1.75
2023-03-04T16:28:15.697Z,5.65
2023-03-04T16:30:43.534Z,16.20
2023-03-04T16:33:12.395Z,3.53
2023-03-04T16:35:40.216Z,6.05
2023-03-04T16:38:34.506Z,1.55
2023-03-04T16:41:04.627Z,6.85
2023-03-04T16:43:31.576Z,3.88
2023-03-04T16:46:02.830Z,3.40
2023-03-04T16:48:29.815Z,1.45
2023-03-04T16:50:59.365Z,5.55
2023-03-04T16:53:35.184Z,2.85
2023-03-04T16:56:16.086Z,3.60
2023-03-04T16:58:43.883Z,3.47
2023-03-04T17:01:24.483Z,6.22
2023-03-04T17:03:52.427Z,4.43
2023-03-04T17:06:20.863Z,2.30
2023-03-04T17:08:47.930Z,2.45
2023-03-04T17:11:18.328Z,1.58
2023-03-04T17:13:54.820Z,1.27
2023-03-04T17:16:24.300Z,4.60
2023-03-04T17:18:51.933Z,4.10
2023-03-04T17:21:25.163Z,4.18
2023-03-04T17:23:53.257Z,12.32
2023-03-04T17:26:21.208Z,9.63
2023-03-04T17:28:51.771Z,23.40
2023-03-04T17:31:20.113Z,15.25
2023-03-04T17:33:47.727Z,35.95
2023-03-04T17:36:16.869Z,105.03
2023-03-04T17:38:44.171Z,37.42
2023-03-04T17:41:15.991Z,50.90
2023-03-04T17:43:44.699Z,87.97
2023-03-04T17:46:14.527Z,45.28
2023-03-04T17:48:41.613Z,16.07
2023-03-04T17:51:09.063Z,36.90
2023-03-04T17:53:36.289Z,34.15
2023-03-04T17:56:05.553Z,6.22
2023-03-04T17:58:34.539Z,10.05
2023-03-04T18:01:16.943Z,11.48
2023-03-04T18:03:43.870Z,3.78
2023-03-04T18:06:10.860Z,5.20
2023-03-04T18:08:37.859Z,6.75
2023-03-04T18:11:04.916Z,12.38
2023-03-04T18:13:31.930Z,9.88
2023-03-04T18:15:58.878Z,4.40
2023-03-04T18:18:25.905Z,5.22
2023-03-04T18:21:01.087Z,4.22
2023-03-04T18:23:28.716Z,4.45
2023-03-04T18:25:56.901Z,1.55
2023-03-04T18:28:24.017Z,3.90
2023-03-04T18:30:52.331Z,8.13
2023-03-04T18:33:21.311Z,0.77
2023-03-04T18:35:48.537Z,10.35
2023-03-04T18:38:15.752Z,1.73
2023-03-04T18:40:43.534Z,1.10
2023-03-04T18:43:10.778Z,4.40
2023-03-04T18:45:37.719Z,2.65
2023-03-04T18:48:05.823Z,4.35
2023-03-04T18:50:32.956Z,2.08
2023-03-04T18:53:00.054Z,3.72
2023-03-04T18:55:27.087Z,1.70
2023-03-04T19:00:34.263Z,1.65
2023-03-04T19:03:05.970Z,4.00
2023-03-04T19:05:33.456Z,3.70
2023-03-04T19:08:00.679Z,0.98
2023-03-04T19:10:28.986Z,1.85
2023-03-04T19:12:59.628Z,0.85
2023-03-04T19:15:26.876Z,0.82
2023-03-04T19:17:53.765Z,4.38
2023-03-04T19:20:20.787Z,2.75
2023-03-04T19:22:47.868Z,13.68
2023-03-04T19:25:15.183Z,9.32
2023-03-04T19:27:52.056Z,6.72
2023-03-04T19:30:19.164Z,4.07
2023-03-04T19:32:46.149Z,4.72
2023-03-04T19:35:19.519Z,1.13
2023-03-04T19:37:46.495Z,4.18
2023-03-04T19:40:13.603Z,2.63
2023-03-04T19:42:40.514Z,1.92
2023-03-04T19:45:09.681Z,3.85
2023-03-04T19:47:40.409Z,1.10
2023-03-04T19:50:09.207Z,0.47
2023-03-04T19:52:36.127Z,2.50
2023-03-04T19:55:03.812Z,4.65
2023-03-04T19:57:32.351Z,4.25
2023-03-04T19:59:59.510Z,6.07
2023-03-04T20:02:26.457Z,3.20
2023-03-04T20:04:53.402Z,7.03
2023-03-04T20:07:20.292Z,4.88
2023-03-04T20:09:47.204Z,2.78
2023-03-04T20:12:15.405Z,1.75
2023-03-04T20:14:43.482Z,1.48
2023-03-04T20:17:10.407Z,0.73
2023-03-04T20:19:37.526Z,3.97
2023-03-04T20:22:05.873Z,0.60
2023-03-04T20:24:33.160Z,4.15
2023-03-04T20:27:00.733Z,1.88
2023-03-04T20:29:29.078Z,1.95
2023-03-04T20:31:56.332Z,1.30
2023-03-04T20:34:25.618Z,4.70
2023-03-04T20:36:52.685Z,3.20
2023-03-04T20:39:28.601Z,4.15
2023-03-04T20:41:59.798Z,2.45
2023-03-04T20:44:27.345Z,2.80
2023-03-04T20:46:54.431Z,7.22
2023-03-04T20:49:24.587Z,2.33
2023-03-04T20:51:58.177Z,2.95
2023-03-04T20:54:25.182Z,1.98
2023-03-04T20:56:52.206Z,3.40
2023-03-04T20:59:19.358Z,6.95
2023-03-04T21:01:48.216Z,6.13
2023-03-04T21:04:15.748Z,1.13
2023-03-04T21:06:43.803Z,9.32
2023-03-04T21:09:15.744Z,3.08
2023-03-04T21:11:43.439Z,1.85
2023-03-04T21:14:24.977Z,8.40
2023-03-04T21:16:54.692Z,8.38
2023-03-04T21:19:31.373Z,8.60
2023-03-04T21:21:59.984Z,2.65
2023-03-04T21:24:29.532Z,5.38
2023-03-04T21:26:56.884Z,7.28
2023-03-04T21:29:25.334Z,3.35
2023-03-04T21:32:04.715Z,0.98
2023-03-04T21:34:40.387Z,0.98
2023-03-04T21:37:08.404Z,1.23
2023-03-04T21:39:36.658Z,7.15
2023-03-04T21:42:05.132Z,8.18
2023-03-04T21:44:48.177Z,1.27
2023-03-04T21:47:16.916Z,2.65
2023-03-04T21:49:44.247Z,0.35
2023-03-04T21:52:11.273Z,47.80
2023-03-04T21:54:38.308Z,0.55
2023-03-04T21:57:05.352Z,1.10
2023-03-04T21:59:32.330Z,2.55
2023-03-04T22:01:59.527Z,14.27
2023-03-04T22:04:26.669Z,2.65
2023-03-04T22:06:53.745Z,1.25
2023-03-04T22:09:20.704Z,2.05
2023-03-04T22:11:47.700Z,2.40
2023-03-04T22:14:14.927Z,1.70
2023-03-04T22:16:54.360Z,2.58
2023-03-04T22:19:23.753Z,4.70
2023-03-04T22:21:51.708Z,1.20
2023-03-04T22:24:19.348Z,2.10
2023-03-04T22:26:46.463Z,2.08
2023-03-04T22:29:13.555Z,2.20
2023-03-04T22:31:40.616Z,0.75
2023-03-04T22:34:11.210Z,4.95
2023-03-04T22:36:41.407Z,1.80
2023-03-04T22:39:11.695Z,5.75
2023-03-04T22:41:38.806Z,0.32
2023-03-04T22:44:06.856Z,0.73
2023-03-04T22:46:38.352Z,1.75
2023-03-04T22:49:10.736Z,5.22
2023-03-04T22:51:38.491Z,1.25
2023-03-04T22:54:05.530Z,1.60
2023-03-04T22:56:33.083Z,1.17
2023-03-04T22:59:00.103Z,0.52
2023-03-04T23:01:27.044Z,1.85
2023-03-04T23:03:54.166Z,2.03
2023-03-04T23:06:30.225Z,2.35
2023-03-04T23:08:58.183Z,4.32
2023-03-04T23:11:30.372Z,2.38
2023-03-04T23:13:57.995Z,4.28
2023-03-04T23:16:27.931Z,0.75
2023-03-04T23:18:55.345Z,3.15
2023-03-04T23:21:24.870Z,2.97
2023-03-04T23:23:52.849Z,1.50
2023-03-04T23:26:23.059Z,3.53
2023-03-04T23:28:50.600Z,6.05
2023-03-04T23:31:19.070Z,4.78
2023-03-04T23:33:47.900Z,0.82
2023-03-04T23:36:17.929Z,1.15
2023-03-04T23:38:47.113Z,4.68
2023-03-04T23:41:15.989Z,2.78
2023-03-04T23:43:43.067Z,1.52
2023-03-04T23:46:11.891Z,0.65
2023-03-04T23:48:40.263Z,0.95
2023-03-04T23:51:08.619Z,0.70
2023-03-04T23:53:35.713Z,1.17
2023-03-04T23:56:02.728Z,3.60
2023-03-04T23:58:29.734Z,2.25
